Terminal Aerodrome Forecast
Issued by NWS

Home | Current Version | Previous Version | Text Only | Print | Product List | Glossary On
Versions: 1 2 3 4 5 6 7 8 9 10 11 12 13 14 15 16
824
FTUS43 KILX 290806 AAB
TAFCMI
TAF AMD
KCMI 290806Z 2908/3006 34011KT P6SM VCSH BKN035
     FM291500 01014G23KT P6SM VCSH BKN015
     FM300000 02011KT P6SM VCSH OVC012=

USA.gov is the U.S. government's official web portal to all federal, state and local government web resources and services.